Time;durP1;ratioP1;P1;durP2;ratioP2;P2;SDS_P1;SDS_P2;PMS_P1;PMS_P2;Temp;Humidity;BMP_temperature;BMP_pressure;BME280_temperature;BME280_humidity;BME280_pressure;Samples;Min_cycle;Max_cycle;Signal;HPM_P1;HPM_P2
2022/12/16 00:00:24;;;;;;;17.07;5.67;;;1.70;99.90;;;;;;5021578;28;20454;-78
2022/12/16 00:02:50;;;;;;;14.03;6.10;;;1.70;99.90;;;;;;5022194;28;20128;-78
2022/12/16 00:05:18;;;;;;;11.07;6.47;;;1.70;99.90;;;;;;5003860;28;20060;-78
2022/12/16 00:07:45;;;;;;;10.27;5.87;;;1.70;99.90;;;;;;5004690;28;20046;-78
2022/12/16 00:10:11;;;;;;;16.63;6.07;;;1.60;99.90;;;;;;5021772;28;20050;-78
2022/12/16 00:12:36;;;;;;;7.30;5.03;;;1.60;99.90;;;;;;5022340;28;20103;-77
2022/12/16 00:15:02;;;;;;;8.10;5.37;;;1.50;99.90;;;;;;5021395;28;20400;-77
2022/12/16 00:17:28;;;;;;;5.53;4.83;;;1.50;99.90;;;;;;5022043;28;20049;-77
2022/12/16 00:19:53;;;;;;;7.23;4.77;;;1.40;99.90;;;;;;5020545;28;20439;-78
2022/12/16 00:22:19;;;;;;;9.40;4.30;;;1.40;99.90;;;;;;5022247;28;20033;-78
2022/12/16 00:24:44;;;;;;;7.33;4.53;;;1.30;99.90;;;;;;5022424;28;20041;-77
2022/12/16 00:27:10;;;;;;;5.73;3.50;;;1.30;99.90;;;;;;5003708;28;20691;-78
2022/12/16 00:29:36;;;;;;;9.97;4.80;;;1.30;99.90;;;;;;5021974;28;20049;-77
2022/12/16 00:32:01;;;;;;;6.83;4.67;;;1.30;99.90;;;;;;5003876;28;20511;-78
2022/12/16 00:34:27;;;;;;;5.97;4.07;;;1.30;99.90;;;;;;5023007;28;20042;-77
2022/12/16 00:36:53;;;;;;;7.43;4.60;;;1.30;99.90;;;;;;5007481;28;20396;-78
2022/12/16 00:39:19;;;;;;;5.93;3.17;;;1.20;99.90;;;;;;5025403;28;20048;-78
2022/12/16 00:41:46;;;;;;;7.70;4.53;;;1.30;99.90;;;;;;5025715;28;20045;-77
2022/12/16 00:44:12;;;;;;;14.07;5.23;;;1.20;99.90;;;;;;5007345;28;20041;-77
2022/12/16 00:46:38;;;;;;;8.03;5.83;;;1.30;99.90;;;;;;5024560;28;20478;-77
2022/12/16 00:49:04;;;;;;;7.67;3.97;;;1.20;99.90;;;;;;5024290;28;20051;-77
2022/12/16 00:51:30;;;;;;;10.73;3.97;;;1.20;99.90;;;;;;5025400;28;20045;-77
2022/12/16 00:53:56;;;;;;;5.50;4.13;;;1.20;99.90;;;;;;5024618;28;20041;-77
2022/12/16 00:56:21;;;;;;;6.17;3.20;;;1.20;99.90;;;;;;5007432;28;20145;-78
2022/12/16 00:58:47;;;;;;;4.70;3.17;;;1.20;99.90;;;;;;5025697;28;20496;-77
2022/12/16 01:01:13;;;;;;;6.50;3.37;;;1.10;99.90;;;;;;5024775;28;20047;-78
2022/12/16 01:03:38;;;;;;;3.60;2.60;;;1.20;99.90;;;;;;5024077;28;20041;-78
2022/12/16 01:06:15;;;;;;;6.10;3.57;;;1.10;99.90;;;;;;5024489;28;20045;-77
2022/12/16 01:08:48;;;;;;;5.50;2.67;;;1.10;99.90;;;;;;5007413;28;20131;-77
2022/12/16 01:11:14;;;;;;;;;;;1.20;99.90;;;;;;5025133;28;20353;-78
2022/12/16 01:13:40;;;;;;;4.33;3.70;;;1.10;99.90;;;;;;5025059;28;19983;-78
2022/12/16 01:16:06;;;;;;;4.30;3.27;;;1.10;99.90;;;;;;5003183;28;20054;-77
2022/12/16 01:18:31;;;;;;;6.97;3.53;;;1.10;99.90;;;;;;5004167;28;20053;-77
2022/12/16 01:21:05;;;;;;;4.20;3.30;;;1.10;99.90;;;;;;5003511;28;20046;-77
2022/12/16 01:23:30;;;;;;;3.53;3.23;;;1.00;99.90;;;;;;5004674;28;20046;-77
2022/12/16 01:25:58;;;;;;;5.10;3.63;;;1.00;99.90;;;;;;5004287;28;20421;-78
2022/12/16 01:28:25;;;;;;;8.27;3.87;;;1.00;99.90;;;;;;5004986;28;20501;-77
2022/12/16 01:30:56;;;;;;;10.90;3.07;;;1.00;99.90;;;;;;5004407;28;20080;-77
2022/12/16 01:33:22;;;;;;;6.53;3.63;;;0.90;99.90;;;;;;5003815;28;20046;-77
2022/12/16 01:35:48;;;;;;;4.03;3.70;;;0.90;99.90;;;;;;5004792;28;20050;-77
2022/12/16 01:38:14;;;;;;;3.40;3.10;;;1.00;99.90;;;;;;5004705;28;20092;-77
2022/12/16 01:40:40;;;;;;;8.27;3.37;;;1.00;99.90;;;;;;5003436;28;20041;-77
2022/12/16 01:43:13;;;;;;;6.13;2.83;;;1.00;99.90;;;;;;5004248;28;20053;-77
2022/12/16 01:45:39;;;;;;;3.10;2.20;;;1.00;99.90;;;;;;5003899;28;20042;-76
2022/12/16 01:48:34;;;;;;;1.83;1.73;;;1.00;99.90;;;;;;5002635;28;20572;-77
2022/12/16 01:51:20;;;;;;;5.50;2.33;;;1.00;99.90;;;;;;5004101;28;20120;-77
2022/12/16 01:53:47;;;;;;;6.13;3.03;;;1.00;99.90;;;;;;5004804;28;20078;-77
2022/12/16 01:56:16;;;;;;;7.17;3.47;;;1.00;99.90;;;;;;5003939;28;20049;-77
2022/12/16 01:58:42;;;;;;;8.00;4.43;;;1.00;99.90;;;;;;5002957;28;20050;-77
2022/12/16 02:01:08;;;;;;;8.90;3.60;;;1.00;99.90;;;;;;5003260;28;20746;-77
2022/12/16 02:03:35;;;;;;;6.03;3.17;;;1.00;99.90;;;;;;5001648;28;20054;-77
2022/12/16 02:06:02;;;;;;;21.17;4.47;;;0.90;99.90;;;;;;5089060;22;20026;-77
2022/12/16 02:08:28;;;;;;;4.77;4.20;;;1.00;99.90;;;;;;5022297;28;20057;-77
2022/12/16 02:11:25;;;;;;;4.53;1.83;;;1.00;99.90;;;;;;5021910;28;20037;-77
2022/12/16 02:14:32;;;;;;;3.20;2.37;;;0.90;99.90;;;;;;5021775;28;20522;-77
2022/12/16 02:17:27;;;;;;;3.77;2.43;;;0.90;99.90;;;;;;5022691;28;20132;-77
2022/12/16 02:20:11;;;;;;;4.73;2.87;;;0.90;99.90;;;;;;5020723;28;20060;-77
2022/12/16 02:23:07;;;;;;;5.77;2.50;;;0.90;99.90;;;;;;5022110;28;20550;-77
2022/12/16 02:25:57;;;;;;;4.90;3.23;;;1.00;99.90;;;;;;5022008;28;20052;-76
2022/12/16 02:28:59;;;;;;;3.37;3.07;;;1.00;99.90;;;;;;5018637;28;20046;-77
2022/12/16 02:32:02;;;;;;;2.42;2.15;;;1.00;99.90;;;;;;4999939;28;20089;-77
2022/12/16 02:34:41;;;;;;;2.92;2.47;;;1.00;99.90;;;;;;5001565;28;20046;-76
2022/12/16 02:37:25;;;;;;;5.20;2.30;;;1.00;99.90;;;;;;5003011;28;20085;-76
2022/12/16 02:39:58;;;;;;;2.13;1.80;;;1.00;99.90;;;;;;5002037;28;20481;-77
2022/12/16 02:42:59;;;;;;;3.23;2.13;;;1.10;99.90;;;;;;5002290;28;20725;-77
2022/12/16 02:45:28;;;;;;;6.77;3.77;;;1.10;99.90;;;;;;5001857;28;20053;-77
2022/12/16 02:47:54;;;;;;;2.07;1.93;;;1.10;99.90;;;;;;5002200;28;20050;-76
2022/12/16 02:50:21;;;;;;;4.73;2.53;;;1.10;99.90;;;;;;5001908;28;20053;-77
2022/12/16 02:52:47;;;;;;;6.33;2.60;;;1.10;99.90;;;;;;5003949;28;20045;-76
2022/12/16 02:55:13;;;;;;;9.30;2.67;;;1.00;99.90;;;;;;5002974;28;20029;-76
2022/12/16 02:58:07;;;;;;;11.03;4.23;;;1.00;99.90;;;;;;5002494;28;20041;-77
2022/12/16 03:01:03;;;;;;;6.63;4.03;;;1.00;99.90;;;;;;4985898;28;20060;-76
2022/12/16 03:03:46;;;;;;;7.97;3.33;;;1.00;99.90;;;;;;4984556;28;20060;-76
2022/12/16 03:06:15;;;;;;;3.97;3.37;;;1.00;99.90;;;;;;5022393;28;20092;-76
2022/12/16 03:08:46;;;;;;;11.50;4.23;;;1.00;99.90;;;;;;5022661;28;20516;-76
2022/12/16 03:11:12;;;;;;;6.20;4.03;;;0.90;99.90;;;;;;5021334;28;20096;-76
2022/12/16 03:13:41;;;;;;;12.07;3.50;;;0.90;99.90;;;;;;5023066;28;20355;-76
2022/12/16 03:16:11;;;;;;;3.83;2.67;;;0.90;99.90;;;;;;5022261;28;20038;-76
2022/12/16 03:18:41;;;;;;;5.53;3.17;;;0.90;99.90;;;;;;5022102;28;20076;-76
2022/12/16 03:21:08;;;;;;;9.33;4.80;;;0.90;99.90;;;;;;5022096;28;20053;-76
2022/12/16 03:23:48;;;;;;;4.30;3.90;;;0.90;99.90;;;;;;5023570;28;20049;-77
2022/12/16 03:26:34;;;;;;;11.13;5.37;;;0.90;99.90;;;;;;5016794;28;20074;-76
2022/12/16 03:29:20;;;;;;;4.27;3.30;;;1.00;99.90;;;;;;5001422;28;20073;-76
2022/12/16 03:31:46;;;;;;;6.00;2.63;;;0.90;99.90;;;;;;5003627;28;20038;-76
2022/12/16 03:34:35;;;;;;;8.13;2.27;;;0.90;99.90;;;;;;5002029;28;20042;-76
2022/12/16 03:37:07;;;;;;;3.50;2.60;;;0.90;99.90;;;;;;5002630;28;20069;-76
2022/12/16 03:39:35;;;;;;;;;;;0.90;99.90;;;;;;5003269;28;20067;-76
2022/12/16 03:42:02;;;;;;;5.97;3.77;;;0.90;99.90;;;;;;5002936;28;19927;-76
2022/12/16 03:44:28;;;;;;;7.23;3.53;;;0.80;99.90;;;;;;5002774;28;20044;-77
2022/12/16 03:46:53;;;;;;;2.17;2.00;;;0.90;99.90;;;;;;5007837;28;20037;-76
2022/12/16 03:49:21;;;;;;;4.07;3.07;;;0.80;99.90;;;;;;5021654;28;20045;-77
2022/12/16 03:51:47;;;;;;;4.23;2.80;;;0.80;99.90;;;;;;5021378;28;20057;-76
2022/12/16 03:54:12;;;;;;;5.50;2.77;;;0.90;99.90;;;;;;5020920;28;20046;-76
2022/12/16 03:56:38;;;;;;;3.67;3.13;;;0.90;99.90;;;;;;5022813;28;20189;-76
2022/12/16 03:59:03;;;;;;;3.77;3.33;;;0.90;99.90;;;;;;5022175;28;20049;-76
2022/12/16 04:01:29;;;;;;;9.03;4.60;;;0.90;99.90;;;;;;5022490;28;20064;-76
2022/12/16 04:03:55;;;;;;;5.67;4.03;;;1.00;99.90;;;;;;5021214;28;20045;-77
2022/12/16 04:06:20;;;;;;;3.70;2.43;;;1.00;99.90;;;;;;5021788;28;20041;-76
2022/12/16 04:08:47;;;;;;;5.07;4.67;;;1.00;99.90;;;;;;5023997;28;20042;-76
2022/12/16 04:25:21;;;;;;;7.20;4.33;;;1.10;99.90;;;;;;5025457;28;20053;-76
2022/12/16 04:27:47;;;;;;;7.70;3.87;;;1.10;99.90;;;;;;5026017;28;20439;-76
2022/12/16 04:30:18;;;;;;;7.37;4.27;;;1.20;99.90;;;;;;5025716;28;20048;-76
